sensor_id;sensor_type;location;lat;lon;timestamp;P1;durP1;ratioP1;P2;durP2;ratioP2
11817;SDS011;5966;52.402;5.322;2023-02-21T00:00:21;11.60;;;7.70;;
11817;SDS011;5966;52.402;5.322;2023-02-21T00:03:07;14.80;;;8.33;;
11817;SDS011;5966;52.402;5.322;2023-02-21T00:05:53;13.27;;;7.50;;
11817;SDS011;5966;52.402;5.322;2023-02-21T00:08:39;11.13;;;7.30;;
11817;SDS011;5966;52.402;5.322;2023-02-21T00:11:24;12.27;;;7.33;;
11817;SDS011;5966;52.402;5.322;2023-02-21T00:14:10;11.93;;;7.33;;
11817;SDS011;5966;52.402;5.322;2023-02-21T00:16:55;15.13;;;7.90;;
11817;SDS011;5966;52.402;5.322;2023-02-21T00:19:40;15.87;;;7.30;;
11817;SDS011;5966;52.402;5.322;2023-02-21T00:22:27;13.87;;;7.83;;
11817;SDS011;5966;52.402;5.322;2023-02-21T00:25:13;13.20;;;7.27;;
11817;SDS011;5966;52.402;5.322;2023-02-21T00:27:59;11.17;;;7.50;;
11817;SDS011;5966;52.402;5.322;2023-02-21T00:30:45;12.20;;;7.73;;
11817;SDS011;5966;52.402;5.322;2023-02-21T00:33:30;14.27;;;7.03;;
11817;SDS011;5966;52.402;5.322;2023-02-21T00:36:19;13.07;;;6.87;;
11817;SDS011;5966;52.402;5.322;2023-02-21T00:39:06;13.03;;;7.07;;
11817;SDS011;5966;52.402;5.322;2023-02-21T00:41:51;12.90;;;7.00;;
11817;SDS011;5966;52.402;5.322;2023-02-21T00:44:37;12.10;;;7.03;;
11817;SDS011;5966;52.402;5.322;2023-02-21T00:47:23;14.60;;;7.43;;
11817;SDS011;5966;52.402;5.322;2023-02-21T00:50:08;12.30;;;6.83;;
11817;SDS011;5966;52.402;5.322;2023-02-21T00:52:54;12.17;;;7.17;;
11817;SDS011;5966;52.402;5.322;2023-02-21T00:55:42;12.33;;;7.57;;
11817;SDS011;5966;52.402;5.322;2023-02-21T00:58:27;12.37;;;6.97;;
11817;SDS011;5966;52.402;5.322;2023-02-21T01:01:12;20.00;;;7.67;;
11817;SDS011;5966;52.402;5.322;2023-02-21T01:03:58;14.93;;;7.90;;
11817;SDS011;5966;52.402;5.322;2023-02-21T01:06:43;14.23;;;7.50;;
11817;SDS011;5966;52.402;5.322;2023-02-21T01:09:29;14.67;;;8.03;;
11817;SDS011;5966;52.402;5.322;2023-02-21T01:12:15;12.70;;;8.00;;
11817;SDS011;5966;52.402;5.322;2023-02-21T01:15:01;14.17;;;8.37;;
11817;SDS011;5966;52.402;5.322;2023-02-21T01:17:46;12.87;;;7.37;;
11817;SDS011;5966;52.402;5.322;2023-02-21T01:20:32;16.17;;;7.30;;
11817;SDS011;5966;52.402;5.322;2023-02-21T01:23:17;17.17;;;7.33;;
11817;SDS011;5966;52.402;5.322;2023-02-21T01:26:02;14.97;;;7.57;;
11817;SDS011;5966;52.402;5.322;2023-02-21T01:28:50;13.53;;;7.83;;
11817;SDS011;5966;52.402;5.322;2023-02-21T01:31:35;13.07;;;7.63;;
11817;SDS011;5966;52.402;5.322;2023-02-21T01:34:21;17.20;;;8.30;;
11817;SDS011;5966;52.402;5.322;2023-02-21T01:37:07;15.73;;;8.23;;
11817;SDS011;5966;52.402;5.322;2023-02-21T01:39:52;16.13;;;7.87;;
11817;SDS011;5966;52.402;5.322;2023-02-21T01:42:37;13.77;;;7.63;;
11817;SDS011;5966;52.402;5.322;2023-02-21T01:48:37;14.00;;;8.47;;
11817;SDS011;5966;52.402;5.322;2023-02-21T01:51:24;12.87;;;8.20;;
11817;SDS011;5966;52.402;5.322;2023-02-21T01:54:15;14.73;;;8.70;;
11817;SDS011;5966;52.402;5.322;2023-02-21T01:57:02;16.47;;;8.80;;
11817;SDS011;5966;52.402;5.322;2023-02-21T01:59:49;12.47;;;8.53;;
11817;SDS011;5966;52.402;5.322;2023-02-21T02:02:40;14.27;;;7.97;;
11817;SDS011;5966;52.402;5.322;2023-02-21T02:05:33;13.13;;;7.90;;
11817;SDS011;5966;52.402;5.322;2023-02-21T02:08:22;13.83;;;8.53;;
11817;SDS011;5966;52.402;5.322;2023-02-21T02:11:20;13.27;;;8.57;;
11817;SDS011;5966;52.402;5.322;2023-02-21T02:14:23;17.97;;;9.30;;
11817;SDS011;5966;52.402;5.322;2023-02-21T02:17:09;14.03;;;8.80;;
11817;SDS011;5966;52.402;5.322;2023-02-21T02:20:02;18.03;;;9.40;;
11817;SDS011;5966;52.402;5.322;2023-02-21T02:23:04;16.70;;;8.40;;
11817;SDS011;5966;52.402;5.322;2023-02-21T02:25:59;13.43;;;8.83;;
11817;SDS011;5966;52.402;5.322;2023-02-21T02:28:57;13.37;;;8.73;;
11817;SDS011;5966;52.402;5.322;2023-02-21T02:31:40;19.10;;;10.20;;
11817;SDS011;5966;52.402;5.322;2023-02-21T02:37:19;17.10;;;9.67;;
11817;SDS011;5966;52.402;5.322;2023-02-21T02:39:52;18.83;;;10.23;;
11817;SDS011;5966;52.402;5.322;2023-02-21T02:42:30;14.77;;;9.07;;
11817;SDS011;5966;52.402;5.322;2023-02-21T02:45:06;14.97;;;9.80;;
11817;SDS011;5966;52.402;5.322;2023-02-21T02:47:40;16.40;;;9.90;;
11817;SDS011;5966;52.402;5.322;2023-02-21T02:50:12;17.70;;;10.23;;
11817;SDS011;5966;52.402;5.322;2023-02-21T02:52:49;17.20;;;10.23;;
11817;SDS011;5966;52.402;5.322;2023-02-21T02:55:32;21.83;;;10.20;;
11817;SDS011;5966;52.402;5.322;2023-02-21T02:58:05;18.40;;;10.20;;
11817;SDS011;5966;52.402;5.322;2023-02-21T03:00:35;17.77;;;10.33;;
11817;SDS011;5966;52.402;5.322;2023-02-21T03:03:10;14.30;;;10.23;;
11817;SDS011;5966;52.402;5.322;2023-02-21T03:05:52;15.57;;;10.00;;
11817;SDS011;5966;52.402;5.322;2023-02-21T03:08:29;20.47;;;11.70;;
11817;SDS011;5966;52.402;5.322;2023-02-21T03:11:08;17.10;;;10.13;;
11817;SDS011;5966;52.402;5.322;2023-02-21T03:13:42;16.67;;;10.03;;
11817;SDS011;5966;52.402;5.322;2023-02-21T03:16:15;19.57;;;11.27;;
11817;SDS011;5966;52.402;5.322;2023-02-21T03:18:47;15.67;;;10.67;;
11817;SDS011;5966;52.402;5.322;2023-02-21T03:21:18;18.17;;;10.70;;
11817;SDS011;5966;52.402;5.322;2023-02-21T03:23:49;18.33;;;11.37;;
11817;SDS011;5966;52.402;5.322;2023-02-21T03:26:20;19.93;;;10.67;;
11817;SDS011;5966;52.402;5.322;2023-02-21T03:28:48;18.13;;;11.37;;
11817;SDS011;5966;52.402;5.322;2023-02-21T03:31:18;16.57;;;10.97;;
11817;SDS011;5966;52.402;5.322;2023-02-21T03:33:51;19.47;;;10.93;;
11817;SDS011;5966;52.402;5.322;2023-02-21T03:36:20;22.23;;;11.57;;
11817;SDS011;5966;52.402;5.322;2023-02-21T03:38:49;23.43;;;12.13;;
11817;SDS011;5966;52.402;5.322;2023-02-21T03:41:17;20.83;;;12.67;;
11817;SDS011;5966;52.402;5.322;2023-02-21T03:43:45;15.60;;;11.37;;
11817;SDS011;5966;52.402;5.322;2023-02-21T03:46:13;15.10;;;11.07;;
11817;SDS011;5966;52.402;5.322;2023-02-21T03:48:41;19.63;;;11.27;;
11817;SDS011;5966;52.402;5.322;2023-02-21T03:51:09;14.80;;;11.80;;
11817;SDS011;5966;52.402;5.322;2023-02-21T03:53:39;18.83;;;12.10;;
11817;SDS011;5966;52.402;5.322;2023-02-21T03:56:07;19.43;;;11.93;;
11817;SDS011;5966;52.402;5.322;2023-02-21T03:58:35;18.20;;;11.63;;
11817;SDS011;5966;52.402;5.322;2023-02-21T04:01:04;15.73;;;11.33;;
11817;SDS011;5966;52.402;5.322;2023-02-21T04:03:32;18.10;;;11.67;;
11817;SDS011;5966;52.402;5.322;2023-02-21T04:06:00;18.93;;;12.10;;
11817;SDS011;5966;52.402;5.322;2023-02-21T04:08:29;18.67;;;11.80;;
11817;SDS011;5966;52.402;5.322;2023-02-21T04:10:58;20.00;;;12.23;;
11817;SDS011;5966;52.402;5.322;2023-02-21T04:13:26;21.43;;;12.77;;
11817;SDS011;5966;52.402;5.322;2023-02-21T04:15:54;18.80;;;12.03;;
11817;SDS011;5966;52.402;5.322;2023-02-21T04:18:24;18.30;;;11.80;;
11817;SDS011;5966;52.402;5.322;2023-02-21T04:20:52;22.33;;;12.20;;
11817;SDS011;5966;52.402;5.322;2023-02-21T04:23:20;18.77;;;12.43;;
11817;SDS011;5966;52.402;5.322;2023-02-21T04:25:48;21.80;;;12.63;;
11817;SDS011;5966;52.402;5.322;2023-02-21T04:28:18;19.40;;;12.33;;
11817;SDS011;5966;52.402;5.322;2023-02-21T04:30:46;21.77;;;12.90;;
11817;SDS011;5966;52.402;5.322;2023-02-21T04:33:14;20.17;;;12.73;;
11817;SDS011;5966;52.402;5.322;2023-02-21T04:35:42;17.60;;;12.63;;
11817;SDS011;5966;52.402;5.322;2023-02-21T04:38:09;20.53;;;13.20;;
11817;SDS011;5966;52.402;5.322;2023-02-21T04:40:37;17.70;;;12.37;;
11817;SDS011;5966;52.402;5.322;2023-02-21T04:43:05;21.77;;;13.03;;
11817;SDS011;5966;52.402;5.322;2023-02-21T04:45:34;19.80;;;14.20;;
11817;SDS011;5966;52.402;5.322;2023-02-21T04:48:03;23.37;;;13.60;;
11817;SDS011;5966;52.402;5.322;2023-02-21T04:50:31;18.33;;;12.87;;
11817;SDS011;5966;52.402;5.322;2023-02-21T04:52:59;20.27;;;13.30;;
11817;SDS011;5966;52.402;5.322;2023-02-21T04:55:27;19.93;;;12.90;;
11817;SDS011;5966;52.402;5.322;2023-02-21T04:57:54;22.23;;;13.83;;
11817;SDS011;5966;52.402;5.322;2023-02-21T05:00:22;17.13;;;13.10;;
11817;SDS011;5966;52.402;5.322;2023-02-21T05:02:52;22.20;;;13.47;;
11817;SDS011;5966;52.402;5.322;2023-02-21T05:05:20;20.57;;;14.07;;
11817;SDS011;5966;52.402;5.322;2023-02-21T05:07:48;20.60;;;12.53;;
11817;SDS011;5966;52.402;5.322;2023-02-21T05:10:16;20.53;;;14.40;;
11817;SDS011;5966;52.402;5.322;2023-02-21T05:12:45;20.30;;;14.03;;
11817;SDS011;5966;52.402;5.322;2023-02-21T05:15:13;19.67;;;13.90;;
11817;SDS011;5966;52.402;5.322;2023-02-21T05:17:41;20.50;;;13.33;;
11817;SDS011;5966;52.402;5.322;2023-02-21T05:20:11;19.60;;;13.23;;
11817;SDS011;5966;52.402;5.322;2023-02-21T05:22:40;24.97;;;14.17;;
11817;SDS011;5966;52.402;5.322;2023-02-21T05:25:13;19.70;;;13.43;;
11817;SDS011;5966;52.402;5.322;2023-02-21T05:27:42;19.17;;;13.97;;
11817;SDS011;5966;52.402;5.322;2023-02-21T05:30:10;19.93;;;13.33;;
11817;SDS011;5966;52.402;5.322;2023-02-21T05:32:41;18.63;;;13.33;;
11817;SDS011;5966;52.402;5.322;2023-02-21T05:35:09;19.97;;;14.03;;
11817;SDS011;5966;52.402;5.322;2023-02-21T05:37:39;21.63;;;13.83;;
11817;SDS011;5966;52.402;5.322;2023-02-21T05:40:08;22.63;;;14.63;;
11817;SDS011;5966;52.402;5.322;2023-02-21T05:42:38;21.33;;;14.10;;
11817;SDS011;5966;52.402;5.322;2023-02-21T05:45:06;24.67;;;15.70;;
11817;SDS011;5966;52.402;5.322;2023-02-21T05:47:35;24.03;;;15.37;;
11817;SDS011;5966;52.402;5.322;2023-02-21T05:50:03;24.23;;;14.77;;
11817;SDS011;5966;52.402;5.322;2023-02-21T05:52:32;21.97;;;15.33;;
11817;SDS011;5966;52.402;5.322;2023-02-21T05:55:01;24.53;;;15.17;;
11817;SDS011;5966;52.402;5.322;2023-02-21T05:57:29;22.60;;;14.93;;
11817;SDS011;5966;52.402;5.322;2023-02-21T05:59:57;19.90;;;14.90;;
11817;SDS011;5966;52.402;5.322;2023-02-21T06:02:25;22.10;;;15.13;;
11817;SDS011;5966;52.402;5.322;2023-02-21T06:04:53;25.03;;;16.03;;
11817;SDS011;5966;52.402;5.322;2023-02-21T06:07:21;20.70;;;14.57;;
11817;SDS011;5966;52.402;5.322;2023-02-21T06:09:49;24.10;;;15.70;;
11817;SDS011;5966;52.402;5.322;2023-02-21T06:12:18;24.33;;;15.63;;
11817;SDS011;5966;52.402;5.322;2023-02-21T06:14:46;23.00;;;16.07;;
11817;SDS011;5966;52.402;5.322;2023-02-21T06:17:15;27.20;;;16.63;;
11817;SDS011;5966;52.402;5.322;2023-02-21T06:19:43;28.17;;;15.43;;
11817;SDS011;5966;52.402;5.322;2023-02-21T06:22:12;25.83;;;17.10;;
11817;SDS011;5966;52.402;5.322;2023-02-21T06:24:40;24.80;;;16.50;;
11817;SDS011;5966;52.402;5.322;2023-02-21T06:27:08;22.63;;;16.17;;
11817;SDS011;5966;52.402;5.322;2023-02-21T06:29:37;23.23;;;16.67;;
11817;SDS011;5966;52.402;5.322;2023-02-21T06:32:08;25.53;;;16.73;;
11817;SDS011;5966;52.402;5.322;2023-02-21T06:34:36;27.57;;;17.87;;
11817;SDS011;5966;52.402;5.322;2023-02-21T06:37:04;27.40;;;17.87;;
11817;SDS011;5966;52.402;5.322;2023-02-21T06:39:33;23.27;;;17.83;;
11817;SDS011;5966;52.402;5.322;2023-02-21T06:42:01;25.37;;;17.27;;
11817;SDS011;5966;52.402;5.322;2023-02-21T06:44:29;26.53;;;18.37;;
11817;SDS011;5966;52.402;5.322;2023-02-21T06:46:58;25.43;;;17.53;;
11817;SDS011;5966;52.402;5.322;2023-02-21T06:49:27;29.50;;;17.73;;
11817;SDS011;5966;52.402;5.322;2023-02-21T06:51:55;26.73;;;18.03;;
11817;SDS011;5966;52.402;5.322;2023-02-21T06:54:25;25.70;;;17.77;;
11817;SDS011;5966;52.402;5.322;2023-02-21T06:56:55;26.20;;;17.30;;
11817;SDS011;5966;52.402;5.322;2023-02-21T06:59:24;26.13;;;17.87;;
11817;SDS011;5966;52.402;5.322;2023-02-21T07:01:52;26.73;;;17.50;;
11817;SDS011;5966;52.402;5.322;2023-02-21T07:04:21;25.97;;;17.87;;
11817;SDS011;5966;52.402;5.322;2023-02-21T07:06:49;23.80;;;17.53;;
11817;SDS011;5966;52.402;5.322;2023-02-21T07:09:18;22.83;;;17.43;;
11817;SDS011;5966;52.402;5.322;2023-02-21T07:11:46;27.00;;;17.73;;
11817;SDS011;5966;52.402;5.322;2023-02-21T07:14:14;22.77;;;17.77;;
11817;SDS011;5966;52.402;5.322;2023-02-21T07:16:42;28.63;;;18.70;;
11817;SDS011;5966;52.402;5.322;2023-02-21T07:19:10;24.30;;;17.77;;
11817;SDS011;5966;52.402;5.322;2023-02-21T07:21:42;25.33;;;18.27;;
11817;SDS011;5966;52.402;5.322;2023-02-21T07:24:10;24.83;;;18.17;;
11817;SDS011;5966;52.402;5.322;2023-02-21T07:26:39;26.47;;;17.93;;
11817;SDS011;5966;52.402;5.322;2023-02-21T07:29:07;25.83;;;18.10;;
11817;SDS011;5966;52.402;5.322;2023-02-21T07:31:35;26.53;;;19.70;;
11817;SDS011;5966;52.402;5.322;2023-02-21T07:34:03;27.03;;;19.00;;
11817;SDS011;5966;52.402;5.322;2023-02-21T07:36:31;27.83;;;19.80;;
11817;SDS011;5966;52.402;5.322;2023-02-21T07:39:00;26.17;;;18.67;;
11817;SDS011;5966;52.402;5.322;2023-02-21T07:41:28;26.70;;;19.03;;
11817;SDS011;5966;52.402;5.322;2023-02-21T07:43:57;27.73;;;19.53;;
11817;SDS011;5966;52.402;5.322;2023-02-21T07:46:25;29.07;;;19.27;;
11817;SDS011;5966;52.402;5.322;2023-02-21T07:48:54;27.43;;;18.80;;
11817;SDS011;5966;52.402;5.322;2023-02-21T07:51:25;27.43;;;18.53;;
11817;SDS011;5966;52.402;5.322;2023-02-21T07:53:55;27.37;;;19.93;;
11817;SDS011;5966;52.402;5.322;2023-02-21T07:56:24;25.80;;;17.90;;
11817;SDS011;5966;52.402;5.322;2023-02-21T07:58:52;29.20;;;19.97;;
11817;SDS011;5966;52.402;5.322;2023-02-21T08:01:21;27.67;;;19.63;;
11817;SDS011;5966;52.402;5.322;2023-02-21T08:03:50;25.77;;;19.97;;
11817;SDS011;5966;52.402;5.322;2023-02-21T08:06:18;28.77;;;19.63;;
11817;SDS011;5966;52.402;5.322;2023-02-21T08:08:46;32.37;;;20.07;;
11817;SDS011;5966;52.402;5.322;2023-02-21T08:11:15;27.73;;;19.43;;
11817;SDS011;5966;52.402;5.322;2023-02-21T08:13:45;28.77;;;20.20;;
11817;SDS011;5966;52.402;5.322;2023-02-21T08:16:13;32.30;;;19.97;;
11817;SDS011;5966;52.402;5.322;2023-02-21T08:18:41;28.40;;;19.47;;
11817;SDS011;5966;52.402;5.322;2023-02-21T08:21:17;27.00;;;20.53;;
11817;SDS011;5966;52.402;5.322;2023-02-21T08:23:45;26.27;;;19.97;;
11817;SDS011;5966;52.402;5.322;2023-02-21T08:26:17;25.97;;;19.03;;
11817;SDS011;5966;52.402;5.322;2023-02-21T08:28:49;25.57;;;19.60;;
11817;SDS011;5966;52.402;5.322;2023-02-21T08:31:20;26.17;;;19.50;;
11817;SDS011;5966;52.402;5.322;2023-02-21T08:33:50;27.07;;;20.37;;
11817;SDS011;5966;52.402;5.322;2023-02-21T08:36:21;28.53;;;19.67;;
11817;SDS011;5966;52.402;5.322;2023-02-21T08:38:58;26.67;;;20.13;;
11817;SDS011;5966;52.402;5.322;2023-02-21T08:41:33;25.50;;;19.80;;
11817;SDS011;5966;52.402;5.322;2023-02-21T08:44:04;30.90;;;20.40;;
11817;SDS011;5966;52.402;5.322;2023-02-21T08:46:33;28.57;;;20.13;;
11817;SDS011;5966;52.402;5.322;2023-02-21T08:49:02;24.97;;;20.30;;
11817;SDS011;5966;52.402;5.322;2023-02-21T08:51:31;25.23;;;19.80;;
11817;SDS011;5966;52.402;5.322;2023-02-21T08:54:00;31.97;;;20.73;;
11817;SDS011;5966;52.402;5.322;2023-02-21T08:56:28;24.67;;;19.00;;
11817;SDS011;5966;52.402;5.322;2023-02-21T08:58:56;27.37;;;19.93;;
11817;SDS011;5966;52.402;5.322;2023-02-21T09:01:34;26.33;;;19.67;;
11817;SDS011;5966;52.402;5.322;2023-02-21T09:04:03;27.53;;;20.00;;
11817;SDS011;5966;52.402;5.322;2023-02-21T09:06:32;23.53;;;19.03;;
11817;SDS011;5966;52.402;5.322;2023-02-21T09:09:00;26.93;;;19.53;;
11817;SDS011;5966;52.402;5.322;2023-02-21T09:11:28;29.33;;;19.97;;
11817;SDS011;5966;52.402;5.322;2023-02-21T09:13:56;26.27;;;19.50;;
11817;SDS011;5966;52.402;5.322;2023-02-21T09:16:24;26.60;;;19.63;;
11817;SDS011;5966;52.402;5.322;2023-02-21T09:18:55;28.07;;;19.07;;
11817;SDS011;5966;52.402;5.322;2023-02-21T09:21:24;26.37;;;19.50;;
11817;SDS011;5966;52.402;5.322;2023-02-21T09:23:53;29.47;;;21.33;;
11817;SDS011;5966;52.402;5.322;2023-02-21T09:26:24;30.13;;;21.07;;
11817;SDS011;5966;52.402;5.322;2023-02-21T09:28:57;30.13;;;20.83;;
11817;SDS011;5966;52.402;5.322;2023-02-21T09:31:25;27.53;;;19.67;;
11817;SDS011;5966;52.402;5.322;2023-02-21T09:33:53;28.37;;;20.10;;
11817;SDS011;5966;52.402;5.322;2023-02-21T09:36:22;29.10;;;20.20;;
11817;SDS011;5966;52.402;5.322;2023-02-21T09:38:52;27.17;;;20.30;;
11817;SDS011;5966;52.402;5.322;2023-02-21T09:41:20;25.50;;;19.30;;
11817;SDS011;5966;52.402;5.322;2023-02-21T09:43:49;28.30;;;19.83;;
11817;SDS011;5966;52.402;5.322;2023-02-21T09:46:30;28.47;;;20.50;;
11817;SDS011;5966;52.402;5.322;2023-02-21T09:49:04;25.37;;;19.33;;
11817;SDS011;5966;52.402;5.322;2023-02-21T09:51:41;28.00;;;20.80;;
11817;SDS011;5966;52.402;5.322;2023-02-21T09:54:12;26.70;;;19.67;;
11817;SDS011;5966;52.402;5.322;2023-02-21T09:56:50;24.40;;;19.67;;
11817;SDS011;5966;52.402;5.322;2023-02-21T09:59:20;27.70;;;20.30;;
11817;SDS011;5966;52.402;5.322;2023-02-21T10:01:51;27.00;;;19.03;;
11817;SDS011;5966;52.402;5.322;2023-02-21T10:07:27;26.50;;;20.00;;
11817;SDS011;5966;52.402;5.322;2023-02-21T10:10:04;26.30;;;20.00;;
11817;SDS011;5966;52.402;5.322;2023-02-21T10:12:43;23.57;;;18.87;;
11817;SDS011;5966;52.402;5.322;2023-02-21T10:15:24;25.13;;;19.50;;
11817;SDS011;5966;52.402;5.322;2023-02-21T10:18:05;23.97;;;18.87;;
11817;SDS011;5966;52.402;5.322;2023-02-21T10:20:50;26.83;;;19.83;;
11817;SDS011;5966;52.402;5.322;2023-02-21T10:23:27;24.77;;;19.07;;
11817;SDS011;5966;52.402;5.322;2023-02-21T10:26:03;24.37;;;19.13;;
11817;SDS011;5966;52.402;5.322;2023-02-21T10:28:39;23.57;;;18.87;;
11817;SDS011;5966;52.402;5.322;2023-02-21T10:31:13;26.50;;;19.23;;
11817;SDS011;5966;52.402;5.322;2023-02-21T10:33:49;24.37;;;18.37;;
11817;SDS011;5966;52.402;5.322;2023-02-21T10:36:21;23.23;;;18.40;;
11817;SDS011;5966;52.402;5.322;2023-02-21T10:38:52;35.37;;;21.37;;
11817;SDS011;5966;52.402;5.322;2023-02-21T10:41:26;30.13;;;19.90;;
11817;SDS011;5966;52.402;5.322;2023-02-21T10:43:59;23.30;;;18.83;;
11817;SDS011;5966;52.402;5.322;2023-02-21T10:46:32;25.03;;;18.17;;
11817;SDS011;5966;52.402;5.322;2023-02-21T10:49:15;20.93;;;17.83;;
11817;SDS011;5966;52.402;5.322;2023-02-21T10:52:07;23.17;;;18.70;;
11817;SDS011;5966;52.402;5.322;2023-02-21T10:54:38;22.87;;;18.13;;
11817;SDS011;5966;52.402;5.322;2023-02-21T10:57:07;21.30;;;17.40;;
11817;SDS011;5966;52.402;5.322;2023-02-21T10:59:39;23.50;;;18.10;;
11817;SDS011;5966;52.402;5.322;2023-02-21T11:05:07;22.60;;;17.57;;
11817;SDS011;5966;52.402;5.322;2023-02-21T11:07:42;21.27;;;17.20;;
11817;SDS011;5966;52.402;5.322;2023-02-21T11:10:29;22.27;;;16.67;;
11817;SDS011;5966;52.402;5.322;2023-02-21T11:13:09;20.57;;;17.03;;
11817;SDS011;5966;52.402;5.322;2023-02-21T11:15:41;21.57;;;17.20;;
11817;SDS011;5966;52.402;5.322;2023-02-21T11:18:13;20.10;;;16.30;;
11817;SDS011;5966;52.402;5.322;2023-02-21T11:20:44;21.67;;;17.03;;
11817;SDS011;5966;52.402;5.322;2023-02-21T11:23:22;22.10;;;16.47;;
11817;SDS011;5966;52.402;5.322;2023-02-21T11:25:58;20.63;;;17.37;;
11817;SDS011;5966;52.402;5.322;2023-02-21T11:28:41;18.67;;;16.60;;
11817;SDS011;5966;52.402;5.322;2023-02-21T11:31:14;20.33;;;16.37;;
11817;SDS011;5966;52.402;5.322;2023-02-21T11:33:50;22.87;;;16.57;;
11817;SDS011;5966;52.402;5.322;2023-02-21T11:36:28;24.30;;;18.00;;
11817;SDS011;5966;52.402;5.322;2023-02-21T11:39:04;22.90;;;17.33;;
11817;SDS011;5966;52.402;5.322;2023-02-21T11:41:44;20.17;;;16.97;;
11817;SDS011;5966;52.402;5.322;2023-02-21T11:44:27;20.33;;;16.70;;
11817;SDS011;5966;52.402;5.322;2023-02-21T11:47:00;20.97;;;17.20;;
11817;SDS011;5966;52.402;5.322;2023-02-21T11:49:37;19.50;;;16.37;;
11817;SDS011;5966;52.402;5.322;2023-02-21T11:52:18;21.63;;;17.23;;
11817;SDS011;5966;52.402;5.322;2023-02-21T11:54:52;19.50;;;17.33;;
11817;SDS011;5966;52.402;5.322;2023-02-21T11:57:23;21.77;;;18.07;;
11817;SDS011;5966;52.402;5.322;2023-02-21T12:00:02;19.80;;;17.00;;
11817;SDS011;5966;52.402;5.322;2023-02-21T12:02:46;20.07;;;16.70;;
11817;SDS011;5966;52.402;5.322;2023-02-21T12:05:31;19.23;;;16.60;;
11817;SDS011;5966;52.402;5.322;2023-02-21T12:08:16;22.47;;;16.57;;
11817;SDS011;5966;52.402;5.322;2023-02-21T12:10:58;20.27;;;16.87;;
11817;SDS011;5966;52.402;5.322;2023-02-21T12:13:39;19.93;;;16.70;;
11817;SDS011;5966;52.402;5.322;2023-02-21T12:16:30;18.53;;;15.67;;
11817;SDS011;5966;52.402;5.322;2023-02-21T12:19:17;22.23;;;16.27;;
11817;SDS011;5966;52.402;5.322;2023-02-21T12:22:02;17.63;;;15.70;;
11817;SDS011;5966;52.402;5.322;2023-02-21T12:24:45;20.17;;;15.37;;
11817;SDS011;5966;52.402;5.322;2023-02-21T12:27:28;18.63;;;16.20;;
11817;SDS011;5966;52.402;5.322;2023-02-21T12:30:05;19.30;;;16.60;;
11817;SDS011;5966;52.402;5.322;2023-02-21T12:32:47;17.97;;;15.43;;
11817;SDS011;5966;52.402;5.322;2023-02-21T12:35:25;18.27;;;16.20;;
11817;SDS011;5966;52.402;5.322;2023-02-21T12:38:17;19.30;;;15.47;;
11817;SDS011;5966;52.402;5.322;2023-02-21T12:40:58;19.43;;;16.37;;
11817;SDS011;5966;52.402;5.322;2023-02-21T12:43:40;21.30;;;16.83;;
11817;SDS011;5966;52.402;5.322;2023-02-21T12:46:18;19.47;;;16.60;;
11817;SDS011;5966;52.402;5.322;2023-02-21T12:48:53;18.93;;;16.50;;
11817;SDS011;5966;52.402;5.322;2023-02-21T12:51:29;18.90;;;16.07;;
11817;SDS011;5966;52.402;5.322;2023-02-21T12:54:00;20.87;;;16.23;;
11817;SDS011;5966;52.402;5.322;2023-02-21T12:56:32;19.83;;;16.37;;
11817;SDS011;5966;52.402;5.322;2023-02-21T12:59:10;19.60;;;16.27;;
11817;SDS011;5966;52.402;5.322;2023-02-21T13:01:46;19.37;;;15.70;;
11817;SDS011;5966;52.402;5.322;2023-02-21T13:04:21;19.03;;;15.87;;
11817;SDS011;5966;52.402;5.322;2023-02-21T13:06:56;18.93;;;15.60;;
11817;SDS011;5966;52.402;5.322;2023-02-21T13:09:29;19.03;;;15.90;;
11817;SDS011;5966;52.402;5.322;2023-02-21T13:12:03;19.60;;;15.90;;
11817;SDS011;5966;52.402;5.322;2023-02-21T13:14:38;17.63;;;15.47;;
11817;SDS011;5966;52.402;5.322;2023-02-21T13:17:10;20.43;;;16.10;;
11817;SDS011;5966;52.402;5.322;2023-02-21T13:19:43;19.23;;;16.10;;
11817;SDS011;5966;52.402;5.322;2023-02-21T13:25:03;17.17;;;15.37;;
11817;SDS011;5966;52.402;5.322;2023-02-21T13:27:47;17.20;;;14.77;;
11817;SDS011;5966;52.402;5.322;2023-02-21T13:30:24;18.03;;;15.83;;
11817;SDS011;5966;52.402;5.322;2023-02-21T13:33:04;17.43;;;15.27;;
11817;SDS011;5966;52.402;5.322;2023-02-21T13:35:33;17.43;;;15.63;;
11817;SDS011;5966;52.402;5.322;2023-02-21T13:38:03;17.10;;;14.80;;
11817;SDS011;5966;52.402;5.322;2023-02-21T13:40:34;17.70;;;14.87;;
11817;SDS011;5966;52.402;5.322;2023-02-21T13:43:05;17.80;;;15.27;;
11817;SDS011;5966;52.402;5.322;2023-02-21T13:45:41;18.13;;;15.60;;
11817;SDS011;5966;52.402;5.322;2023-02-21T13:50:57;17.53;;;15.13;;
11817;SDS011;5966;52.402;5.322;2023-02-21T13:53:27;18.40;;;15.13;;
11817;SDS011;5966;52.402;5.322;2023-02-21T13:59:29;20.53;;;14.93;;
11817;SDS011;5966;52.402;5.322;2023-02-21T14:02:19;20.73;;;15.90;;
11817;SDS011;5966;52.402;5.322;2023-02-21T14:05:02;22.37;;;16.57;;
11817;SDS011;5966;52.402;5.322;2023-02-21T14:07:42;21.37;;;15.20;;
11817;SDS011;5966;52.402;5.322;2023-02-21T14:10:25;21.23;;;15.87;;
11817;SDS011;5966;52.402;5.322;2023-02-21T14:13:07;20.57;;;15.87;;
11817;SDS011;5966;52.402;5.322;2023-02-21T14:15:45;22.20;;;15.40;;
11817;SDS011;5966;52.402;5.322;2023-02-21T14:18:18;23.23;;;16.50;;
11817;SDS011;5966;52.402;5.322;2023-02-21T14:20:49;20.67;;;15.73;;
11817;SDS011;5966;52.402;5.322;2023-02-21T14:23:21;23.10;;;15.80;;
11817;SDS011;5966;52.402;5.322;2023-02-21T14:25:56;20.13;;;15.67;;
11817;SDS011;5966;52.402;5.322;2023-02-21T14:31:45;22.53;;;15.73;;
11817;SDS011;5966;52.402;5.322;2023-02-21T14:34:23;20.90;;;14.73;;
11817;SDS011;5966;52.402;5.322;2023-02-21T14:36:56;22.03;;;15.10;;
11817;SDS011;5966;52.402;5.322;2023-02-21T14:39:32;20.40;;;14.73;;
11817;SDS011;5966;52.402;5.322;2023-02-21T14:42:07;20.20;;;14.30;;
11817;SDS011;5966;52.402;5.322;2023-02-21T14:44:49;18.50;;;13.67;;
11817;SDS011;5966;52.402;5.322;2023-02-21T14:47:33;18.97;;;14.20;;
11817;SDS011;5966;52.402;5.322;2023-02-21T14:50:29;17.70;;;13.10;;
11817;SDS011;5966;52.402;5.322;2023-02-21T14:53:06;19.23;;;12.53;;
11817;SDS011;5966;52.402;5.322;2023-02-21T14:59:01;16.03;;;11.70;;
11817;SDS011;5966;52.402;5.322;2023-02-21T15:01:54;16.87;;;11.93;;
11817;SDS011;5966;52.402;5.322;2023-02-21T15:04:33;14.83;;;10.23;;
11817;SDS011;5966;52.402;5.322;2023-02-21T15:07:09;15.20;;;10.97;;
11817;SDS011;5966;52.402;5.322;2023-02-21T15:12:37;14.33;;;10.17;;
11817;SDS011;5966;52.402;5.322;2023-02-21T15:15:12;12.87;;;9.57;;
11817;SDS011;5966;52.402;5.322;2023-02-21T15:17:57;13.47;;;9.97;;
11817;SDS011;5966;52.402;5.322;2023-02-21T15:20:31;14.13;;;10.10;;
11817;SDS011;5966;52.402;5.322;2023-02-21T15:23:10;12.20;;;9.70;;
11817;SDS011;5966;52.402;5.322;2023-02-21T15:25:41;13.70;;;9.27;;
11817;SDS011;5966;52.402;5.322;2023-02-21T15:28:18;12.93;;;8.77;;
11817;SDS011;5966;52.402;5.322;2023-02-21T15:30:55;12.97;;;9.30;;
11817;SDS011;5966;52.402;5.322;2023-02-21T15:33:29;11.00;;;8.93;;
11817;SDS011;5966;52.402;5.322;2023-02-21T15:36:00;10.83;;;8.50;;
11817;SDS011;5966;52.402;5.322;2023-02-21T15:38:33;10.83;;;8.53;;
11817;SDS011;5966;52.402;5.322;2023-02-21T15:41:12;12.57;;;9.70;;
11817;SDS011;5966;52.402;5.322;2023-02-21T15:43:47;12.40;;;9.93;;
11817;SDS011;5966;52.402;5.322;2023-02-21T15:46:20;14.27;;;10.83;;
11817;SDS011;5966;52.402;5.322;2023-02-21T15:48:53;12.97;;;10.40;;
11817;SDS011;5966;52.402;5.322;2023-02-21T15:51:28;13.97;;;10.10;;